Arvilla, North Dakota
Current Conditions -  °F | °C
As of 10:58 PM on Saturday 25 Oct 2014 (Local Time) from KRDR Reporting Station
Clear Clear  
Wind Chill:   Ceiling: Unl
Heat Index:   Visibility: 10mi
Dew Point: -5°   Wind: 5mph
Humidity: 59%   Direction: 240°WSW
Pressure: 29.99"   Gusts: NA
Location:  47.92°N, 97.49°W
Report Text: KRDR 260358Z AUTO 24004KT 10SM CLR 03/M05 A2999 RMK AO2 SLP166 T00271046
Loading
Personal Weather Stations






























Interactive Weather Map
Tropical Storm Tracking
New forecast layout! Learn more

10-Day Weather Forecast

Advertisements
Track Severe Weather on mobile